Weather at Little Falls-Morrison County-Lindbergh field

Public forecast

Using degrees Fahrenheit for public forecast. Weather courtesy of forecast.io.

Current aviation weather report (METAR) for Little Falls-Morrison County-Lindbergh field

2024/02/23 04:15 (retrieved 25 minutes ago)

KLXL 230415Z AUTO 00000KT 10SM CLR 00/M03 A2975 RMK AO2

Closest aviation forecast (TAF) to Little Falls-Morrison County-Lindbergh field

Forecast is more than 6 hours old.

Closest forecast is Portage-la-Prairie / Southport Airport, 285.0 nm (527.9 km) NNW.

2024/02/22 18:12 Ammendment (retrieved 10 hours ago)

TAF AMD CYPG 222307Z 2218/2306 CNL RMK END OF FLY PROGRAM NXT FCST BY 230000Z